createdAt,value
2022-09-29T06:02:07.043Z,26.25
2022-09-29T06:05:08.859Z,24.23
2022-09-29T06:08:11.030Z,26.48
2022-09-29T06:11:15.717Z,25.42
2022-09-29T06:14:17.295Z,24.55
2022-09-29T06:17:18.863Z,27.25
2022-09-29T06:20:20.422Z,25.25
2022-09-29T06:23:22.005Z,25.40
2022-09-29T06:26:25.428Z,25.98
2022-09-29T06:29:27.119Z,24.98
2022-09-29T06:32:28.765Z,23.10
2022-09-29T06:35:49.054Z,24.83
2022-09-29T06:38:50.792Z,23.13
2022-09-29T06:41:54.386Z,24.27
2022-09-29T06:44:56.219Z,22.92
2022-09-29T06:48:03.330Z,20.90
2022-09-29T06:51:10.578Z,20.90
2022-09-29T06:54:20.710Z,20.30
2022-09-29T06:57:22.325Z,20.50
2022-09-29T07:00:23.896Z,18.63
2022-09-29T07:03:25.406Z,19.48
2022-09-29T07:06:26.961Z,21.05
2022-09-29T07:09:28.680Z,17.83
2022-09-29T07:12:30.398Z,20.70
2022-09-29T07:15:32.497Z,20.05
2022-09-29T07:18:38.922Z,19.90
2022-09-29T07:21:40.674Z,19.67
2022-09-29T07:24:43.163Z,19.00
2022-09-29T07:27:45.858Z,18.23
2022-09-29T07:30:47.492Z,18.35
2022-09-29T07:33:50.898Z,17.58
2022-09-29T07:36:52.590Z,19.58
2022-09-29T07:39:54.290Z,18.67
2022-09-29T07:42:55.840Z,18.48
2022-09-29T07:45:57.706Z,17.10
2022-09-29T07:48:59.451Z,17.00
2022-09-29T07:52:01.347Z,17.40
2022-09-29T07:55:04.034Z,16.05
2022-09-29T07:58:06.498Z,15.15
2022-09-29T08:01:12.621Z,15.80
2022-09-29T08:04:14.581Z,13.90
2022-09-29T08:07:16.574Z,12.80
2022-09-29T08:10:18.132Z,13.70
2022-09-29T08:13:19.769Z,14.32
2022-09-29T08:16:21.474Z,14.23
2022-09-29T08:19:23.196Z,15.45
2022-09-29T08:22:24.789Z,15.35
2022-09-29T08:25:26.673Z,16.30
2022-09-29T08:28:32.286Z,14.63
2022-09-29T08:31:34.429Z,17.25
2022-09-29T08:34:36.631Z,14.27
2022-09-29T08:37:38.826Z,16.67
2022-09-29T08:40:40.822Z,13.98
2022-09-29T08:43:44.117Z,14.98
2022-09-29T08:47:08.606Z,14.07
2022-09-29T08:50:27.920Z,13.18
2022-09-29T08:53:33.907Z,14.35
2022-09-29T08:56:35.815Z,11.52
2022-09-29T08:59:37.894Z,13.07
2022-09-29T09:02:50.903Z,12.50
2022-09-29T09:06:19.189Z,12.52
2022-09-29T09:09:55.919Z,11.73
2022-09-29T09:13:09.967Z,12.77
2022-09-29T09:16:39.917Z,13.52
2022-09-29T09:19:59.392Z,13.63
2022-09-29T09:23:22.768Z,13.93
2022-09-29T09:26:44.815Z,11.02
2022-09-29T09:29:50.005Z,9.98
2022-09-29T09:33:00.199Z,8.70
2022-09-29T09:36:34.231Z,8.02
2022-09-29T09:39:55.382Z,7.43
2022-09-29T09:43:05.221Z,10.23
2022-09-29T09:46:28.875Z,6.38
2022-09-29T09:49:39.387Z,5.80
2022-09-29T09:53:13.076Z,6.60
2022-09-29T09:56:31.195Z,5.93
2022-09-29T09:59:43.839Z,7.20
2022-09-29T10:02:50.125Z,5.85
2022-09-29T10:05:51.752Z,5.32
2022-09-29T10:08:53.337Z,7.43
2022-09-29T10:11:55.011Z,4.53
2022-09-29T10:15:05.385Z,5.38
2022-09-29T10:18:17.870Z,4.30
2022-09-29T10:21:24.789Z,5.43
2022-09-29T10:24:33.272Z,4.55
2022-09-29T10:27:40.063Z,4.03
2022-09-29T10:30:41.768Z,3.10
2022-09-29T10:33:49.773Z,2.85
2022-09-29T10:37:06.395Z,4.72
2022-09-29T10:40:07.848Z,4.05
2022-09-29T10:43:36.894Z,4.75
2022-09-29T10:46:56.081Z,3.58
2022-09-29T10:50:08.042Z,3.70
2022-09-29T10:53:33.191Z,3.33
2022-09-29T10:56:36.512Z,3.00
2022-09-29T10:59:46.909Z,3.40
2022-09-29T11:02:49.037Z,4.97
2022-09-29T11:05:54.539Z,3.70
2022-09-29T11:08:59.240Z,3.08
2022-09-29T11:12:04.116Z,3.72
2022-09-29T11:15:28.507Z,3.67
2022-09-29T11:18:35.970Z,4.47
2022-09-29T11:21:55.187Z,4.65
2022-09-29T11:25:08.752Z,4.00
2022-09-29T11:28:36.778Z,5.88
2022-09-29T11:31:44.357Z,4.85
2022-09-29T11:34:58.465Z,3.67
2022-09-29T11:38:33.968Z,4.20
2022-09-29T11:41:59.118Z,5.63
2022-09-29T11:45:03.927Z,4.35
2022-09-29T11:48:46.818Z,5.45
2022-09-29T11:52:20.043Z,4.00
2022-09-29T11:55:49.543Z,3.83
2022-09-29T11:59:15.617Z,4.30
2022-09-29T12:03:08.027Z,4.10
2022-09-29T12:06:19.982Z,3.90
2022-09-29T12:09:33.226Z,4.65
2022-09-29T12:13:04.051Z,4.55
2022-09-29T12:16:15.792Z,4.20
2022-09-29T12:19:23.678Z,3.97
2022-09-29T12:22:25.420Z,5.70
2022-09-29T12:25:31.221Z,5.18
2022-09-29T12:28:41.215Z,4.90
2022-09-29T12:31:49.192Z,4.07
2022-09-29T12:35:06.137Z,3.85
2022-09-29T12:38:28.543Z,4.90
2022-09-29T12:41:36.512Z,4.18
2022-09-29T12:44:44.255Z,3.30
2022-09-29T12:48:07.051Z,3.92
2022-09-29T12:51:36.688Z,5.00
2022-09-29T12:55:01.964Z,2.88
2022-09-29T12:58:09.548Z,2.38
2022-09-29T13:01:47.311Z,2.92
2022-09-29T13:05:13.790Z,2.83
2022-09-29T13:08:33.811Z,3.75
2022-09-29T13:11:58.484Z,4.10
2022-09-29T13:15:18.922Z,5.25
2022-09-29T13:18:23.615Z,4.05
2022-09-29T13:21:42.234Z,4.47
2022-09-29T13:25:11.796Z,4.88
2022-09-29T13:28:43.244Z,3.85
2022-09-29T13:31:46.451Z,2.75
2022-09-29T13:34:54.869Z,4.40
2022-09-29T13:38:08.658Z,3.42
2022-09-29T13:41:17.747Z,3.63
2022-09-29T13:44:20.632Z,6.00
2022-09-29T13:47:32.589Z,3.80
2022-09-29T13:50:44.774Z,4.43
2022-09-29T13:53:46.303Z,3.90
2022-09-29T13:56:58.586Z,3.25
2022-09-29T14:00:02.297Z,4.15
2022-09-29T14:03:33.368Z,4.25
2022-09-29T14:06:46.914Z,3.10
2022-09-29T14:09:50.000Z,3.45
2022-09-29T14:13:01.878Z,4.65
2022-09-29T14:16:26.349Z,5.68
2022-09-29T14:20:07.820Z,3.70
2022-09-29T14:23:11.029Z,3.03
2022-09-29T14:26:43.659Z,3.65
2022-09-29T14:29:58.004Z,3.10
2022-09-29T14:33:04.887Z,2.30
2022-09-29T14:36:14.415Z,1.90
2022-09-29T14:39:31.893Z,2.30
2022-09-29T14:42:34.177Z,3.10
2022-09-29T14:46:17.048Z,2.90
2022-09-29T14:50:05.578Z,2.13
2022-09-29T14:56:34.536Z,2.45
2022-09-29T15:03:23.640Z,2.03
2022-09-29T15:06:26.345Z,3.40
2022-09-29T15:09:28.256Z,2.33
2022-09-29T15:12:32.122Z,2.13
2022-09-29T15:15:38.277Z,2.65
2022-09-29T15:19:25.598Z,1.70
2022-09-29T15:23:04.667Z,2.63
2022-09-29T15:26:14.347Z,3.17
2022-09-29T15:29:19.212Z,2.50
2022-09-29T15:32:29.553Z,2.30
2022-09-29T15:35:32.262Z,2.15
2022-09-29T15:38:38.275Z,3.55
2022-09-29T15:41:40.324Z,2.10
2022-09-29T15:44:47.499Z,1.88
2022-09-29T15:47:57.688Z,3.13
2022-09-29T15:51:02.842Z,2.65
2022-09-29T15:54:10.229Z,2.05
2022-09-29T15:57:47.037Z,2.25
2022-09-29T16:00:49.155Z,3.00
2022-09-29T16:03:57.593Z,2.28
2022-09-29T16:06:59.474Z,2.45
2022-09-29T16:10:09.577Z,1.58
2022-09-29T16:13:19.761Z,3.35
2022-09-29T16:16:29.059Z,4.30
2022-09-29T16:19:32.652Z,2.30
2022-09-29T16:22:34.282Z,3.15
2022-09-29T16:25:36.032Z,2.58
2022-09-29T16:28:40.052Z,3.10
2022-09-29T16:31:44.618Z,3.72
2022-09-29T16:34:46.207Z,3.58
2022-09-29T16:37:47.836Z,4.75
2022-09-29T16:40:50.900Z,4.18
2022-09-29T16:44:02.151Z,3.95
2022-09-29T16:47:09.704Z,3.60
2022-09-29T16:50:14.354Z,4.03
2022-09-29T16:53:32.082Z,4.20
2022-09-29T16:56:35.610Z,4.53
2022-09-29T16:59:37.287Z,4.50
2022-09-29T17:02:38.920Z,6.30
2022-09-29T17:05:47.455Z,7.63
2022-09-29T17:08:51.848Z,6.85
2022-09-29T17:11:54.368Z,5.63
2022-09-29T17:14:57.155Z,5.68
2022-09-29T17:17:58.829Z,7.07
2022-09-29T17:21:00.518Z,11.65
2022-09-29T17:24:03.769Z,15.02
2022-09-29T17:27:23.927Z,15.75
2022-09-29T17:30:28.653Z,11.35
2022-09-29T17:33:31.089Z,10.32
2022-09-29T17:36:32.737Z,6.90
2022-09-29T17:39:34.275Z,7.10
2022-09-29T17:42:35.887Z,6.65
2022-09-29T17:45:39.506Z,8.07
2022-09-29T17:48:41.168Z,7.95
2022-09-29T17:51:42.790Z,9.38
2022-09-29T17:54:44.953Z,11.80
2022-09-29T17:57:47.759Z,11.63
